sensor_id;sensor_type;location;lat;lon;timestamp;pressure;altitude;pressure_sealevel;temperature;humidity
48824;BME280;34640;53.590;10.054;2023-10-19T00:00:38;99875.03;;;8.79;100.00
48824;BME280;34640;53.590;10.054;2023-10-19T00:03:11;99867.25;;;8.79;100.00
48824;BME280;34640;53.590;10.054;2023-10-19T00:05:46;99858.50;;;8.77;100.00
48824;BME280;34640;53.590;10.054;2023-10-19T00:08:19;99854.19;;;8.77;100.00
48824;BME280;34640;53.590;10.054;2023-10-19T00:10:53;99848.03;;;8.75;100.00
48824;BME280;34640;53.590;10.054;2023-10-19T00:13:35;99841.16;;;8.76;100.00
48824;BME280;34640;53.590;10.054;2023-10-19T00:16:08;99838.03;;;8.83;100.00
48824;BME280;34640;53.590;10.054;2023-10-19T00:18:49;99825.22;;;8.86;100.00
48824;BME280;34640;53.590;10.054;2023-10-19T00:21:25;99817.34;;;8.84;100.00
48824;BME280;34640;53.590;10.054;2023-10-19T00:23:58;99825.97;;;8.83;100.00
48824;BME280;34640;53.590;10.054;2023-10-19T00:26:36;99825.97;;;8.83;100.00
48824;BME280;34640;53.590;10.054;2023-10-19T00:29:08;99823.44;;;8.85;100.00
48824;BME280;34640;53.590;10.054;2023-10-19T00:32:01;99817.19;;;8.81;100.00
48824;BME280;34640;53.590;10.054;2023-10-19T00:34:35;99809.72;;;8.87;100.00
48824;BME280;34640;53.590;10.054;2023-10-19T00:37:11;99800.81;;;8.82;100.00
48824;BME280;34640;53.590;10.054;2023-10-19T00:39:51;99818.03;;;8.80;100.00
48824;BME280;34640;53.590;10.054;2023-10-19T00:42:26;99811.78;;;8.77;100.00
48824;BME280;34640;53.590;10.054;2023-10-19T00:45:03;99807.41;;;8.76;100.00
48824;BME280;34640;53.590;10.054;2023-10-19T00:47:37;99805.13;;;8.82;100.00
48824;BME280;34640;53.590;10.054;2023-10-19T00:50:12;99794.66;;;8.80;100.00
48824;BME280;34640;53.590;10.054;2023-10-19T00:52:49;99797.91;;;8.76;100.00
48824;BME280;34640;53.590;10.054;2023-10-19T00:55:22;99785.91;;;8.78;100.00
48824;BME280;34640;53.590;10.054;2023-10-19T00:57:58;99788.41;;;8.77;100.00
48824;BME280;34640;53.590;10.054;2023-10-19T01:00:36;99785.97;;;8.80;100.00
48824;BME280;34640;53.590;10.054;2023-10-19T01:03:15;99784.13;;;8.77;100.00
48824;BME280;34640;53.590;10.054;2023-10-19T01:05:48;99794.44;;;8.76;100.00
48824;BME280;34640;53.590;10.054;2023-10-19T01:08:23;99777.38;;;8.81;100.00
48824;BME280;34640;53.590;10.054;2023-10-19T01:10:58;99773.59;;;8.74;100.00
48824;BME280;34640;53.590;10.054;2023-10-19T01:13:31;99765.13;;;8.78;100.00
48824;BME280;34640;53.590;10.054;2023-10-19T01:16:11;99759.66;;;8.72;100.00
48824;BME280;34640;53.590;10.054;2023-10-19T01:18:49;99757.94;;;8.73;100.00
48824;BME280;34640;53.590;10.054;2023-10-19T01:21:25;99747.63;;;8.74;100.00
48824;BME280;34640;53.590;10.054;2023-10-19T01:24:08;99752.09;;;8.77;100.00
48824;BME280;34640;53.590;10.054;2023-10-19T01:26:44;99738.13;;;8.75;100.00
48824;BME280;34640;53.590;10.054;2023-10-19T01:29:18;99727.09;;;8.79;100.00
48824;BME280;34640;53.590;10.054;2023-10-19T01:31:58;99726.06;;;8.75;100.00
48824;BME280;34640;53.590;10.054;2023-10-19T01:34:37;99732.44;;;8.82;100.00
48824;BME280;34640;53.590;10.054;2023-10-19T01:37:10;99715.91;;;8.80;100.00
48824;BME280;34640;53.590;10.054;2023-10-19T01:39:45;99720.34;;;8.82;100.00
48824;BME280;34640;53.590;10.054;2023-10-19T01:42:17;99721.22;;;8.83;100.00
48824;BME280;34640;53.590;10.054;2023-10-19T01:44:50;99714.34;;;8.83;100.00
48824;BME280;34640;53.590;10.054;2023-10-19T01:47:22;99710.69;;;8.80;100.00
48824;BME280;34640;53.590;10.054;2023-10-19T01:49:56;99703.88;;;8.82;100.00
48824;BME280;34640;53.590;10.054;2023-10-19T01:52:28;99704.69;;;8.81;100.00
48824;BME280;34640;53.590;10.054;2023-10-19T01:55:03;99696.03;;;8.80;100.00
48824;BME280;34640;53.590;10.054;2023-10-19T01:57:39;99685.56;;;8.79;100.00
48824;BME280;34640;53.590;10.054;2023-10-19T02:00:12;99676.97;;;8.80;100.00
48824;BME280;34640;53.590;10.054;2023-10-19T02:02:54;99681.47;;;8.84;100.00
48824;BME280;34640;53.590;10.054;2023-10-19T02:05:27;99675.19;;;8.79;100.00
48824;BME280;34640;53.590;10.054;2023-10-19T02:08:05;99671.09;;;8.84;100.00
48824;BME280;34640;53.590;10.054;2023-10-19T02:10:46;99665.84;;;8.82;100.00
48824;BME280;34640;53.590;10.054;2023-10-19T02:13:18;99674.59;;;8.84;100.00
48824;BME280;34640;53.590;10.054;2023-10-19T02:15:51;99675.94;;;8.76;100.00
48824;BME280;34640;53.590;10.054;2023-10-19T02:18:22;99658.88;;;8.81;100.00
48824;BME280;34640;53.590;10.054;2023-10-19T02:20:55;99657.16;;;8.82;100.00
48824;BME280;34640;53.590;10.054;2023-10-19T02:23:28;99649.44;;;8.83;100.00
48824;BME280;34640;53.590;10.054;2023-10-19T02:26:02;99651.75;;;8.77;100.00
48824;BME280;34640;53.590;10.054;2023-10-19T02:28:36;99642.75;;;8.88;100.00
48824;BME280;34640;53.590;10.054;2023-10-19T02:31:10;99645.88;;;8.81;100.00
48824;BME280;34640;53.590;10.054;2023-10-19T02:33:51;99655.59;;;8.85;100.00
48824;BME280;34640;53.590;10.054;2023-10-19T02:36:24;99649.00;;;8.92;100.00
48824;BME280;34640;53.590;10.054;2023-10-19T02:39:01;99650.03;;;8.96;100.00
48824;BME280;34640;53.590;10.054;2023-10-19T02:41:41;99647.44;;;8.96;100.00
48824;BME280;34640;53.590;10.054;2023-10-19T02:44:17;99644.03;;;8.97;100.00
48824;BME280;34640;53.590;10.054;2023-10-19T02:46:55;99639.72;;;8.97;100.00
48824;BME280;34640;53.590;10.054;2023-10-19T02:49:31;99646.84;;;9.01;100.00
48824;BME280;34640;53.590;10.054;2023-10-19T02:52:04;99659.63;;;8.97;100.00
48824;BME280;34640;53.590;10.054;2023-10-19T02:54:36;99652.03;;;9.01;100.00
48824;BME280;34640;53.590;10.054;2023-10-19T02:57:10;99645.94;;;9.01;100.00
48824;BME280;34640;53.590;10.054;2023-10-19T02:59:45;99646.84;;;9.01;100.00
48824;BME280;34640;53.590;10.054;2023-10-19T03:02:18;99638.91;;;8.98;100.00
48824;BME280;34640;53.590;10.054;2023-10-19T03:04:50;99645.66;;;8.95;100.00
48824;BME280;34640;53.590;10.054;2023-10-19T03:07:23;99638.97;;;9.00;100.00
48824;BME280;34640;53.590;10.054;2023-10-19T03:09:55;99629.94;;;8.92;100.00
48824;BME280;34640;53.590;10.054;2023-10-19T03:12:29;99624.97;;;8.96;100.00
48824;BME280;34640;53.590;10.054;2023-10-19T03:15:02;99630.44;;;9.02;100.00
48824;BME280;34640;53.590;10.054;2023-10-19T03:17:36;99630.50;;;9.04;100.00
48824;BME280;34640;53.590;10.054;2023-10-19T03:20:11;99625.13;;;8.99;100.00
48824;BME280;34640;53.590;10.054;2023-10-19T03:22:48;99618.06;;;8.97;100.00
48824;BME280;34640;53.590;10.054;2023-10-19T03:25:20;99623.41;;;9.00;100.00
48824;BME280;34640;53.590;10.054;2023-10-19T03:28:12;99618.81;;;8.94;100.00
48824;BME280;34640;53.590;10.054;2023-10-19T03:30:48;99608.56;;;8.97;100.00
48824;BME280;34640;53.590;10.054;2023-10-19T03:33:20;99602.63;;;9.00;100.00
48824;BME280;34640;53.590;10.054;2023-10-19T03:35:58;99611.09;;;8.96;100.00
48824;BME280;34640;53.590;10.054;2023-10-19T03:38:32;99616.50;;;9.00;100.00
48824;BME280;34640;53.590;10.054;2023-10-19T03:41:08;99606.94;;;8.99;100.00
48824;BME280;34640;53.590;10.054;2023-10-19T03:43:43;99616.59;;;8.84;100.00
48824;BME280;34640;53.590;10.054;2023-10-19T03:46:16;99617.03;;;8.57;100.00
48824;BME280;34640;53.590;10.054;2023-10-19T03:48:56;99618.66;;;8.38;100.00
48824;BME280;34640;53.590;10.054;2023-10-19T03:51:35;99612.41;;;8.34;100.00
48824;BME280;34640;53.590;10.054;2023-10-19T03:54:29;99608.28;;;8.21;100.00
48824;BME280;34640;53.590;10.054;2023-10-19T03:57:04;99610.69;;;8.01;100.00
48824;BME280;34640;53.590;10.054;2023-10-19T03:59:44;99606.66;;;7.89;100.00
48824;BME280;34640;53.590;10.054;2023-10-19T04:02:18;99606.28;;;7.82;100.00
48824;BME280;34640;53.590;10.054;2023-10-19T04:04:53;99605.69;;;7.71;100.00
48824;BME280;34640;53.590;10.054;2023-10-19T04:07:27;99600.88;;;7.61;100.00
48824;BME280;34640;53.590;10.054;2023-10-19T04:10:04;99597.84;;;7.53;100.00
48824;BME280;34640;53.590;10.054;2023-10-19T04:13:01;99588.81;;;7.45;100.00
48824;BME280;34640;53.590;10.054;2023-10-19T04:15:36;99589.44;;;7.41;100.00
48824;BME280;34640;53.590;10.054;2023-10-19T04:18:09;99583.53;;;7.44;100.00
48824;BME280;34640;53.590;10.054;2023-10-19T04:20:42;99593.41;;;7.34;100.00
48824;BME280;34640;53.590;10.054;2023-10-19T04:23:27;99586.19;;;7.29;100.00
48824;BME280;34640;53.590;10.054;2023-10-19T04:26:00;99582.56;;;7.25;100.00
48824;BME280;34640;53.590;10.054;2023-10-19T04:28:38;99592.19;;;7.28;100.00
48824;BME280;34640;53.590;10.054;2023-10-19T04:31:17;99592.19;;;7.28;100.00
48824;BME280;34640;53.590;10.054;2023-10-19T04:33:50;99585.00;;;7.22;100.00
48824;BME280;34640;53.590;10.054;2023-10-19T04:36:25;99591.88;;;7.22;100.00
48824;BME280;34640;53.590;10.054;2023-10-19T04:38:58;99585.06;;;7.24;100.00
48824;BME280;34640;53.590;10.054;2023-10-19T04:41:32;99581.50;;;7.22;100.00
48824;BME280;34640;53.590;10.054;2023-10-19T04:44:05;99589.13;;;7.19;100.00
48824;BME280;34640;53.590;10.054;2023-10-19T04:46:41;99592.31;;;7.15;100.00
48824;BME280;34640;53.590;10.054;2023-10-19T04:49:14;99594.03;;;7.14;100.00
48824;BME280;34640;53.590;10.054;2023-10-19T04:51:48;99596.53;;;7.13;100.00
48824;BME280;34640;53.590;10.054;2023-10-19T04:54:20;99597.19;;;7.09;100.00
48824;BME280;34640;53.590;10.054;2023-10-19T04:56:53;99585.13;;;7.09;100.00
48824;BME280;34640;53.590;10.054;2023-10-19T04:59:27;99581.81;;;7.12;100.00
48824;BME280;34640;53.590;10.054;2023-10-19T05:02:01;99570.47;;;7.10;100.00
48824;BME280;34640;53.590;10.054;2023-10-19T05:04:34;99572.03;;;7.06;100.00
48824;BME280;34640;53.590;10.054;2023-10-19T05:07:07;99574.69;;;7.08;100.00
48824;BME280;34640;53.590;10.054;2023-10-19T05:09:43;99576.31;;;7.05;100.00
48824;BME280;34640;53.590;10.054;2023-10-19T05:12:16;99571.22;;;7.07;100.00
48824;BME280;34640;53.590;10.054;2023-10-19T05:14:50;99561.66;;;7.06;100.00
48824;BME280;34640;53.590;10.054;2023-10-19T05:17:24;99561.81;;;7.09;100.00
48824;BME280;34640;53.590;10.054;2023-10-19T05:19:58;99552.19;;;7.07;100.00
48824;BME280;34640;53.590;10.054;2023-10-19T05:22:31;99555.84;;;7.10;100.00
48824;BME280;34640;53.590;10.054;2023-10-19T05:25:05;99565.16;;;7.07;100.00
48824;BME280;34640;53.590;10.054;2023-10-19T05:27:39;99558.50;;;7.12;100.00
48824;BME280;34640;53.590;10.054;2023-10-19T05:30:14;99553.25;;;7.10;100.00
48824;BME280;34640;53.590;10.054;2023-10-19T05:32:48;99549.69;;;7.08;100.00
48824;BME280;34640;53.590;10.054;2023-10-19T05:35:22;99550.66;;;7.10;100.00
48824;BME280;34640;53.590;10.054;2023-10-19T05:37:57;99554.06;;;7.09;100.00
48824;BME280;34640;53.590;10.054;2023-10-19T05:40:30;99551.63;;;7.12;100.00
48824;BME280;34640;53.590;10.054;2023-10-19T05:43:03;99552.72;;;7.16;100.00
48824;BME280;34640;53.590;10.054;2023-10-19T05:45:37;99552.53;;;7.13;100.00
48824;BME280;34640;53.590;10.054;2023-10-19T05:48:13;99540.47;;;7.13;100.00
48824;BME280;34640;53.590;10.054;2023-10-19T05:50:47;99536.25;;;7.15;100.00
48824;BME280;34640;53.590;10.054;2023-10-19T05:53:21;99538.97;;;7.17;100.00
48824;BME280;34640;53.590;10.054;2023-10-19T05:55:55;99539.13;;;7.20;100.00
48824;BME280;34640;53.590;10.054;2023-10-19T05:58:27;99538.16;;;7.18;100.00
48824;BME280;34640;53.590;10.054;2023-10-19T06:01:00;99535.63;;;7.19;100.00
48824;BME280;34640;53.590;10.054;2023-10-19T06:03:35;99543.41;;;7.19;100.00
48824;BME280;34640;53.590;10.054;2023-10-19T06:06:10;99527.06;;;7.20;100.00
48824;BME280;34640;53.590;10.054;2023-10-19T06:08:44;99527.72;;;7.16;100.00
48824;BME280;34640;53.590;10.054;2023-10-19T06:11:17;99522.28;;;7.12;100.00
48824;BME280;34640;53.590;10.054;2023-10-19T06:13:50;99517.25;;;7.15;100.00
48824;BME280;34640;53.590;10.054;2023-10-19T06:16:23;99522.34;;;7.13;100.00
48824;BME280;34640;53.590;10.054;2023-10-19T06:18:58;99522.13;;;7.09;100.00
48824;BME280;34640;53.590;10.054;2023-10-19T06:21:31;99523.97;;;7.11;100.00
48824;BME280;34640;53.590;10.054;2023-10-19T06:24:06;99522.19;;;7.10;100.00
48824;BME280;34640;53.590;10.054;2023-10-19T06:26:41;99519.44;;;7.07;100.00
48824;BME280;34640;53.590;10.054;2023-10-19T06:29:14;99527.22;;;7.07;100.00
48824;BME280;34640;53.590;10.054;2023-10-19T06:31:47;99518.78;;;7.11;100.00
48824;BME280;34640;53.590;10.054;2023-10-19T06:34:22;99516.28;;;7.13;100.00
48824;BME280;34640;53.590;10.054;2023-10-19T06:36:55;99528.25;;;7.11;100.00
48824;BME280;34640;53.590;10.054;2023-10-19T06:39:27;99522.34;;;7.13;100.00
48824;BME280;34640;53.590;10.054;2023-10-19T06:42:01;99523.16;;;7.12;100.00
48824;BME280;34640;53.590;10.054;2023-10-19T06:44:34;99520.34;;;7.08;100.00
48824;BME280;34640;53.590;10.054;2023-10-19T06:47:07;99534.47;;;7.14;100.00
48824;BME280;34640;53.590;10.054;2023-10-19T06:49:41;99532.00;;;7.16;100.00
48824;BME280;34640;53.590;10.054;2023-10-19T06:52:15;99534.69;;;7.17;100.00
48824;BME280;34640;53.590;10.054;2023-10-19T06:54:47;99544.13;;;7.17;100.00
48824;BME280;34640;53.590;10.054;2023-10-19T06:57:20;99539.19;;;7.21;100.00
48824;BME280;34640;53.590;10.054;2023-10-19T06:59:53;99540.09;;;7.22;100.00
48824;BME280;34640;53.590;10.054;2023-10-19T07:02:26;99541.63;;;7.18;100.00
48824;BME280;34640;53.590;10.054;2023-10-19T07:05:00;99539.13;;;7.20;100.00
48824;BME280;34640;53.590;10.054;2023-10-19T07:07:34;99539.28;;;7.23;100.00
48824;BME280;34640;53.590;10.054;2023-10-19T07:10:08;99539.34;;;7.24;100.00
48824;BME280;34640;53.590;10.054;2023-10-19T07:12:42;99540.31;;;7.26;100.00
48824;BME280;34640;53.590;10.054;2023-10-19T07:15:15;99533.91;;;7.36;100.00
48824;BME280;34640;53.590;10.054;2023-10-19T07:17:50;99535.38;;;7.31;100.00
48824;BME280;34640;53.590;10.054;2023-10-19T07:20:27;99533.69;;;7.31;100.00
48824;BME280;34640;53.590;10.054;2023-10-19T07:23:01;99532.06;;;7.33;100.00
48824;BME280;34640;53.590;10.054;2023-10-19T07:25:38;99524.38;;;7.35;100.00
48824;BME280;34640;53.590;10.054;2023-10-19T07:28:17;99527.84;;;7.35;100.00
48824;BME280;34640;53.590;10.054;2023-10-19T07:30:51;99532.47;;;7.41;100.00
48824;BME280;34640;53.590;10.054;2023-10-19T07:33:24;99554.00;;;7.40;100.00
48824;BME280;34640;53.590;10.054;2023-10-19T07:35:59;99555.53;;;7.36;100.00
48824;BME280;34640;53.590;10.054;2023-10-19T07:38:38;99560.06;;;7.41;100.00
48824;BME280;34640;53.590;10.054;2023-10-19T07:41:11;99553.75;;;7.35;100.00
48824;BME280;34640;53.590;10.054;2023-10-19T07:43:43;99548.81;;;7.40;100.00
48824;BME280;34640;53.590;10.054;2023-10-19T07:46:16;99542.25;;;7.30;100.00
48824;BME280;34640;53.590;10.054;2023-10-19T07:48:50;99546.56;;;7.30;100.00
48824;BME280;34640;53.590;10.054;2023-10-19T07:51:25;99541.28;;;7.28;100.00
48824;BME280;34640;53.590;10.054;2023-10-19T07:53:58;99541.53;;;7.33;100.00
48824;BME280;34640;53.590;10.054;2023-10-19T07:56:30;99518.00;;;7.28;100.00
48824;BME280;34640;53.590;10.054;2023-10-19T07:59:05;99515.41;;;7.28;100.00
48824;BME280;34640;53.590;10.054;2023-10-19T08:01:38;99518.16;;;7.31;100.00
48824;BME280;34640;53.590;10.054;2023-10-19T08:04:11;99518.16;;;7.31;100.00
48824;BME280;34640;53.590;10.054;2023-10-19T08:06:45;99521.63;;;7.32;100.00
48824;BME280;34640;53.590;10.054;2023-10-19T08:09:19;99529.97;;;7.43;100.00
48824;BME280;34640;53.590;10.054;2023-10-19T08:11:54;99514.09;;;7.36;100.00
48824;BME280;34640;53.590;10.054;2023-10-19T08:14:27;99512.31;;;7.35;100.00
48824;BME280;34640;53.590;10.054;2023-10-19T08:17:02;99503.41;;;7.30;100.00
48824;BME280;34640;53.590;10.054;2023-10-19T08:19:35;99507.06;;;7.34;100.00
48824;BME280;34640;53.590;10.054;2023-10-19T08:22:09;99507.78;;;7.31;100.00
48824;BME280;34640;53.590;10.054;2023-10-19T08:24:42;99513.78;;;7.30;100.00
48824;BME280;34640;53.590;10.054;2023-10-19T08:27:17;99503.56;;;7.33;100.00
48824;BME280;34640;53.590;10.054;2023-10-19T08:29:50;99495.81;;;7.33;100.00
48824;BME280;34640;53.590;10.054;2023-10-19T08:32:22;99489.75;;;7.33;100.00
48824;BME280;34640;53.590;10.054;2023-10-19T08:34:55;99477.84;;;7.36;100.00
48824;BME280;34640;53.590;10.054;2023-10-19T08:37:30;99487.31;;;7.36;100.00
48824;BME280;34640;53.590;10.054;2023-10-19T08:40:03;99491.66;;;7.37;100.00
48824;BME280;34640;53.590;10.054;2023-10-19T08:42:36;99492.41;;;7.34;100.00
48824;BME280;34640;53.590;10.054;2023-10-19T08:45:09;99505.19;;;7.31;100.00
48824;BME280;34640;53.590;10.054;2023-10-19T08:47:48;99516.59;;;7.35;100.00
48824;BME280;34640;53.590;10.054;2023-10-19T08:50:26;99511.28;;;7.32;100.00
48824;BME280;34640;53.590;10.054;2023-10-19T08:53:02;99512.97;;;7.31;100.00
48824;BME280;34640;53.590;10.054;2023-10-19T08:55:35;99501.88;;;7.34;100.00
48824;BME280;34640;53.590;10.054;2023-10-19T08:58:20;99496.63;;;7.32;100.00
48824;BME280;34640;53.590;10.054;2023-10-19T09:00:53;99506.44;;;7.38;100.00
48824;BME280;34640;53.590;10.054;2023-10-19T09:03:27;99508.91;;;7.36;100.00
48824;BME280;34640;53.590;10.054;2023-10-19T09:06:01;99517.50;;;7.35;100.00
48824;BME280;34640;53.590;10.054;2023-10-19T09:08:35;99514.19;;;7.38;100.00
48824;BME280;34640;53.590;10.054;2023-10-19T09:11:13;99513.94;;;7.33;100.00
48824;BME280;34640;53.590;10.054;2023-10-19T09:13:47;99513.47;;;7.41;100.00
48824;BME280;34640;53.590;10.054;2023-10-19T09:16:22;99519.59;;;7.43;100.00
48824;BME280;34640;53.590;10.054;2023-10-19T09:18:56;99518.88;;;7.45;100.00
48824;BME280;34640;53.590;10.054;2023-10-19T09:21:29;99514.44;;;7.43;100.00
48824;BME280;34640;53.590;10.054;2023-10-19T09:24:07;99515.31;;;7.43;100.00
48824;BME280;34640;53.590;10.054;2023-10-19T09:26:40;99519.47;;;7.40;100.00
48824;BME280;34640;53.590;10.054;2023-10-19T09:29:17;99512.72;;;7.43;100.00
48824;BME280;34640;53.590;10.054;2023-10-19T09:31:51;99504.00;;;7.41;100.00
48824;BME280;34640;53.590;10.054;2023-10-19T09:34:29;99509.09;;;7.40;100.00
48824;BME280;34640;53.590;10.054;2023-10-19T09:37:04;99522.19;;;7.43;100.00
48824;BME280;34640;53.590;10.054;2023-10-19T09:39:39;99518.50;;;7.38;100.00
48824;BME280;34640;53.590;10.054;2023-10-19T09:42:16;99515.97;;;7.39;100.00
48824;BME280;34640;53.590;10.054;2023-10-19T09:44:57;99521.22;;;7.41;100.00
48824;BME280;34640;53.590;10.054;2023-10-19T09:47:35;99515.97;;;7.39;100.00
48824;BME280;34640;53.590;10.054;2023-10-19T09:50:12;99506.72;;;7.44;100.00
48824;BME280;34640;53.590;10.054;2023-10-19T09:52:46;99492.00;;;7.43;100.00
48824;BME280;34640;53.590;10.054;2023-10-19T09:55:22;99496.47;;;7.46;100.00
48824;BME280;34640;53.590;10.054;2023-10-19T09:58:04;99519.75;;;7.46;100.00
48824;BME280;34640;53.590;10.054;2023-10-19T10:00:43;99524.88;;;7.44;100.00
48824;BME280;34640;53.590;10.054;2023-10-19T10:03:42;99531.91;;;7.47;100.00
48824;BME280;34640;53.590;10.054;2023-10-19T10:06:16;99544.84;;;7.47;100.00
48824;BME280;34640;53.590;10.054;2023-10-19T10:08:52;99548.88;;;7.58;100.00
48824;BME280;34640;53.590;10.054;2023-10-19T10:11:27;99544.75;;;7.61;100.00
48824;BME280;34640;53.590;10.054;2023-10-19T10:14:00;99536.66;;;7.55;100.00
48824;BME280;34640;53.590;10.054;2023-10-19T10:16:33;99544.41;;;7.55;100.00
48824;BME280;34640;53.590;10.054;2023-10-19T10:19:07;99536.03;;;7.59;100.00
48824;BME280;34640;53.590;10.054;2023-10-19T10:22:03;99546.19;;;7.56;100.00
48824;BME280;34640;53.590;10.054;2023-10-19T10:24:39;99528.97;;;7.57;100.00
48824;BME280;34640;53.590;10.054;2023-10-19T10:27:17;99526.44;;;7.58;100.00
48824;BME280;34640;53.590;10.054;2023-10-19T10:29:55;99518.53;;;7.55;100.00
48824;BME280;34640;53.590;10.054;2023-10-19T10:32:45;99511.34;;;7.50;100.00
48824;BME280;34640;53.590;10.054;2023-10-19T10:35:53;99507.03;;;7.50;100.00
48824;BME280;34640;53.590;10.054;2023-10-19T10:38:33;99513.09;;;7.51;100.00
48824;BME280;34640;53.590;10.054;2023-10-19T10:41:07;99511.56;;;7.54;100.00
48824;BME280;34640;53.590;10.054;2023-10-19T10:43:52;99495.47;;;7.60;100.00
48824;BME280;34640;53.590;10.054;2023-10-19T10:46:28;99510.19;;;7.61;100.00
48824;BME280;34640;53.590;10.054;2023-10-19T10:49:08;99506.59;;;7.59;100.00
48824;BME280;34640;53.590;10.054;2023-10-19T10:51:40;99504.34;;;7.65;100.00
48824;BME280;34640;53.590;10.054;2023-10-19T10:54:14;99502.56;;;7.64;100.00
48824;BME280;34640;53.590;10.054;2023-10-19T10:56:46;99497.94;;;7.58;100.00
48824;BME280;34640;53.590;10.054;2023-10-19T10:59:21;99502.09;;;7.55;100.00
48824;BME280;34640;53.590;10.054;2023-10-19T11:01:54;99489.81;;;7.51;100.00
48824;BME280;34640;53.590;10.054;2023-10-19T11:04:27;99488.91;;;7.50;100.00
48824;BME280;34640;53.590;10.054;2023-10-19T11:07:00;99493.13;;;7.48;100.00
48824;BME280;34640;53.590;10.054;2023-10-19T11:09:43;99489.00;;;7.52;100.00
48824;BME280;34640;53.590;10.054;2023-10-19T11:12:16;99492.53;;;7.54;100.00
48824;BME280;34640;53.590;10.054;2023-10-19T11:14:56;99500.25;;;7.52;100.00
48824;BME280;34640;53.590;10.054;2023-10-19T11:17:31;99509.06;;;7.56;100.00
48824;BME280;34640;53.590;10.054;2023-10-19T11:20:04;99507.13;;;7.52;100.00
48824;BME280;34640;53.590;10.054;2023-10-19T11:22:47;99521.03;;;7.54;100.00
48824;BME280;34640;53.590;10.054;2023-10-19T11:25:22;99523.63;;;7.54;100.00
48824;BME280;34640;53.590;10.054;2023-10-19T11:27:56;99515.78;;;7.52;100.00
48824;BME280;34640;53.590;10.054;2023-10-19T11:30:31;99512.88;;;7.46;100.00
48824;BME280;34640;53.590;10.054;2023-10-19T11:33:04;99513.09;;;7.51;100.00
48824;BME280;34640;53.590;10.054;2023-10-19T11:35:37;99519.09;;;7.50;100.00
48824;BME280;34640;53.590;10.054;2023-10-19T11:38:10;99518.38;;;7.52;100.00
48824;BME280;34640;53.590;10.054;2023-10-19T11:40:43;99515.78;;;7.52;100.00
48824;BME280;34640;53.590;10.054;2023-10-19T11:43:16;99501.88;;;7.50;100.00
48824;BME280;34640;53.590;10.054;2023-10-19T11:45:52;99492.53;;;7.54;100.00
48824;BME280;34640;53.590;10.054;2023-10-19T11:48:24;99489.88;;;7.52;100.00
48824;BME280;34640;53.590;10.054;2023-10-19T11:50:57;99481.94;;;7.49;100.00
48824;BME280;34640;53.590;10.054;2023-10-19T11:53:34;99470.84;;;7.52;100.00
48824;BME280;34640;53.590;10.054;2023-10-19T11:56:09;99462.19;;;7.51;100.00
48824;BME280;34640;53.590;10.054;2023-10-19T11:58:44;99445.19;;;7.56;100.00
48824;BME280;34640;53.590;10.054;2023-10-19T12:01:20;99452.88;;;7.55;100.00
48824;BME280;34640;53.590;10.054;2023-10-19T12:03:53;99447.03;;;7.59;100.00
48824;BME280;34640;53.590;10.054;2023-10-19T12:06:26;99444.38;;;7.57;100.00
48824;BME280;34640;53.590;10.054;2023-10-19T12:08:58;99449.63;;;7.59;100.00
48824;BME280;34640;53.590;10.054;2023-10-19T12:11:37;99439.38;;;7.60;100.00
48824;BME280;34640;53.590;10.054;2023-10-19T12:14:11;99440.97;;;7.58;100.00
48824;BME280;34640;53.590;10.054;2023-10-19T12:16:48;99444.69;;;7.63;100.00
48824;BME280;34640;53.590;10.054;2023-10-19T12:19:21;99429.31;;;7.66;100.00
48824;BME280;34640;53.590;10.054;2023-10-19T12:21:53;99421.75;;;7.71;100.00
48824;BME280;34640;53.590;10.054;2023-10-19T12:24:26;99425.50;;;7.78;100.00
48824;BME280;34640;53.590;10.054;2023-10-19T12:27:00;99424.06;;;7.83;100.00
48824;BME280;34640;53.590;10.054;2023-10-19T12:29:33;99421.69;;;7.87;100.00
48824;BME280;34640;53.590;10.054;2023-10-19T12:32:07;99422.66;;;7.89;100.00
48824;BME280;34640;53.590;10.054;2023-10-19T12:34:41;99419.25;;;7.90;100.00
48824;BME280;34640;53.590;10.054;2023-10-19T12:37:13;99424.41;;;7.90;100.00
48824;BME280;34640;53.590;10.054;2023-10-19T12:39:49;99429.88;;;7.96;100.00
48824;BME280;34640;53.590;10.054;2023-10-19T12:42:23;99416.13;;;7.97;100.00
48824;BME280;34640;53.590;10.054;2023-10-19T12:44:56;99403.31;;;8.01;100.00
48824;BME280;34640;53.590;10.054;2023-10-19T12:47:30;99411.06;;;8.01;100.00
48824;BME280;34640;53.590;10.054;2023-10-19T12:50:03;99414.13;;;8.10;100.00
48824;BME280;34640;53.590;10.054;2023-10-19T12:52:38;99402.88;;;8.09;100.00
48824;BME280;34640;53.590;10.054;2023-10-19T12:55:11;99403.00;;;8.12;100.00
48824;BME280;34640;53.590;10.054;2023-10-19T12:57:45;99390.19;;;8.15;100.00
48824;BME280;34640;53.590;10.054;2023-10-19T13:00:18;99387.53;;;8.14;100.00
48824;BME280;34640;53.590;10.054;2023-10-19T13:02:58;99381.38;;;8.12;100.00
48824;BME280;34640;53.590;10.054;2023-10-19T13:05:32;99386.56;;;8.12;100.00
48824;BME280;34640;53.590;10.054;2023-10-19T13:08:06;99392.78;;;8.15;100.00
48824;BME280;34640;53.590;10.054;2023-10-19T13:10:40;99397.97;;;8.15;100.00
48824;BME280;34640;53.590;10.054;2023-10-19T13:13:15;99392.72;;;8.14;100.00
48824;BME280;34640;53.590;10.054;2023-10-19T13:15:48;99393.66;;;8.16;100.00
48824;BME280;34640;53.590;10.054;2023-10-19T13:18:22;99398.16;;;8.20;100.00
48824;BME280;34640;53.590;10.054;2023-10-19T13:20:59;99387.06;;;8.22;100.00
48824;BME280;34640;53.590;10.054;2023-10-19T13:23:36;99383.75;;;8.25;100.00
48824;BME280;34640;53.590;10.054;2023-10-19T13:26:09;99376.75;;;8.24;100.00
48824;BME280;34640;53.590;10.054;2023-10-19T13:28:49;99377.88;;;8.29;100.00
48824;BME280;34640;53.590;10.054;2023-10-19T13:31:24;99372.69;;;8.29;100.00